Cades, SC (29518)

9:45 PM EDT on September 15, 2014 (GMT -0400)
Williamsburg County | Change Station
CLOSE
Current Station
Airport
Location: Kingstree,
Elevation: 66 ft
Nearby Weather Stations

Elev 66 ft 33.72 °N, 79.86 °W | Updated 10 minutes ago

Overcast
Overcast
73 °F
Feels Like 73 °F
N
0
Wind Variable Wind from North

Today
High -- | Low -- °F
--% Chance of Precip.
Yesterday
High -- | Low -- °F
Precip. -- in
7:02 AM 7:25 PM
Waning Gibbous, 50% visible
Pressure 30.14 in
Visibility 5.0 miles
Clouds Scattered Clouds 1300 ft
Scattered Clouds 2400 ft
Mostly Cloudy 9500 ft
Dew Point 73 °F
Humidity 100%
Rainfall 0.38 in
Snow Depth Not available.
UV 0 out of 12
Pollen 7.70 out of 12
Air Quality Not available.
Flu Activity Not available.
METAR KCKI 160135Z AUTO 00000KT 5SM -DZ SCT013 SCT024 BKN095 23/23 A3014 RMK AO2 P0004

More Conditions Fewer Conditions

Pressure 30.14 in
Visibility 5.0 miles
Clouds Scattered Clouds 1300 ft
Scattered Clouds 2400 ft
Mostly Cloudy 9500 ft
Dew Point 73 °F
Humidity 100%
Rainfall 0.38 in
Snow Depth Not available.
UV 0 out of 12
Pollen 7.70 out of 12
Air Quality Not available.
Flu Activity Not available.
METAR KCKI 160135Z AUTO 00000KT 5SM -DZ SCT013 SCT024 BKN095 23/23 A3014 RMK AO2 P0004

More Conditions Fewer Conditions

10-Day Weather Forecast

Almanac

Astronomy

Sep. 15, 2014 Rise Set
Actual Time 7:02 AM EDT 7:25 PM EDT
Civil Twilight 6:37 AM EDT 7:50 PM EDT
Nautical Twilight 6:08 AM EDT 8:19 PM EDT
Astronomical Twilight 5:38 AM EDT 8:49 PM EDT
Moon No Moon Rise 1:44 PM EDT (9/15)
Length of Visible Light 13h 13m
Length of Day
12h 23m
Tomorrow will be 2m 4s shorter.
Waning Gibbous, 50% of the Moon is Illuminated
Today
Waning Gibbous
Sep 15
Last Quarter
Sep 24
New
Oct 1
First Quarter
Oct 8
Full

Today's Extremes

State Highs State Lows

Community

WunderPhotos

Upload Photos

1,753,643 photos uploaded!

WunderBlogs® & News

Nearby

Snow Depth

Station Depth Elevation
No new snow has been reported.

Earthquake Activity

City Distance Mag. Time & Date
No recent earthquake activity has been reported nearby.
Minimum magnitude displayed is 2.5.

Coastal Water Temperatures

Place Temperature
No Stations Reporting

Nearby Weather Stations